AEE300 LGAV-LGIR
Flight info
| Callsign | AEE300 |
|---|---|
| Flight time | 0h 32m |
| Altitude | 25000 |
| Route | KEA UL607 GIVIS T514 XAVIS |
| Aircraft | A320/M-SDE3FGHIRWY/LB1 |
Departure
| Time | 2026-05-07 04:28 |
|---|---|
| Airport | Athens Eleftherios Venizelos International Airport (LGAV) |
Arrival
| Time | 2026-05-07 05:01 |
|---|---|
| Airport | Heraklion International Nikos Kazantzakis Airport (LGIR) |
| Time | Latitude | Longitude | Altitude | Speed | Heading |
|---|---|---|---|---|---|
| 2026-05-07 04:00 | 37.94030 | 23.95297 | 300 ft | 0 kts | 39° |
| 2026-05-07 04:20 | 37.94016 | 23.95283 | 302 ft | 4 kts | 41° |
| 2026-05-07 04:20 | 37.93997 | 23.95259 | 302 ft | 4 kts | 49° |
| 2026-05-07 04:21 | 37.93979 | 23.95203 | 300 ft | 3 kts | 124° |
| 2026-05-07 04:21 | 37.93983 | 23.95196 | 301 ft | 0 kts | 127° |
| 2026-05-07 04:23 | 37.93978 | 23.95203 | 301 ft | 4 kts | 127° |
| 2026-05-07 04:23 | 37.93951 | 23.95249 | 300 ft | 7 kts | 127° |
| 2026-05-07 04:23 | 37.93925 | 23.95294 | 300 ft | 6 kts | 127° |
| 2026-05-07 04:24 | 37.93899 | 23.95337 | 300 ft | 6 kts | 127° |
| 2026-05-07 04:24 | 37.93873 | 23.95379 | 301 ft | 6 kts | 127° |
| 2026-05-07 04:24 | 37.93839 | 23.95423 | 297 ft | 10 kts | 152° |
| 2026-05-07 04:24 | 37.93747 | 23.95373 | 297 ft | 19 kts | 217° |
| 2026-05-07 04:25 | 37.93640 | 23.95272 | 301 ft | 20 kts | 216° |
| 2026-05-07 04:25 | 37.93520 | 23.95158 | 300 ft | 22 kts | 217° |
| 2026-05-07 04:25 | 37.93394 | 23.95039 | 300 ft | 24 kts | 217° |
| 2026-05-07 04:25 | 37.93257 | 23.94909 | 300 ft | 25 kts | 216° |
| 2026-05-07 04:26 | 37.93112 | 23.94772 | 300 ft | 27 kts | 217° |
| 2026-05-07 04:26 | 37.92960 | 23.94628 | 302 ft | 28 kts | 216° |
| 2026-05-07 04:26 | 37.92802 | 23.94478 | 304 ft | 29 kts | 217° |
| 2026-05-07 04:26 | 37.92655 | 23.94338 | 303 ft | 22 kts | 217° |
| 2026-05-07 04:27 | 37.92558 | 23.94296 | 306 ft | 13 kts | 149° |
| 2026-05-07 04:27 | 37.92508 | 23.94365 | 307 ft | 8 kts | 131° |
| 2026-05-07 04:27 | 37.92488 | 23.94423 | 310 ft | 12 kts | 86° |
| 2026-05-07 04:27 | 37.92685 | 23.94643 | 304 ft | 75 kts | 36° |
| 2026-05-07 04:28 | 37.93295 | 23.95224 | 293 ft | 140 kts | 37° |
| 2026-05-07 04:28 | 37.94187 | 23.96075 | 577 ft | 164 kts | 36° |
| 2026-05-07 04:28 | 37.95060 | 23.96904 | 1386 ft | 158 kts | 37° |
| 2026-05-07 04:28 | 37.95947 | 23.97753 | 2083 ft | 162 kts | 37° |
| 2026-05-07 04:29 | 37.96901 | 23.98669 | 2494 ft | 183 kts | 37° |
| 2026-05-07 04:29 | 37.97983 | 23.99706 | 2851 ft | 206 kts | 37° |
| 2026-05-07 04:29 | 37.99192 | 24.00863 | 3191 ft | 229 kts | 37° |
| 2026-05-07 04:29 | 38.00533 | 24.02148 | 3625 ft | 253 kts | 37° |
| 2026-05-07 04:30 | 38.01958 | 24.03519 | 4452 ft | 260 kts | 37° |
| 2026-05-07 04:30 | 38.03340 | 24.05094 | 5145 ft | 276 kts | 54° |
| 2026-05-07 04:30 | 38.04106 | 24.07332 | 5978 ft | 281 kts | 82° |
| 2026-05-07 04:30 | 38.03985 | 24.09788 | 6922 ft | 282 kts | 109° |
| 2026-05-07 04:31 | 38.02990 | 24.11914 | 7800 ft | 284 kts | 137° |
| 2026-05-07 04:31 | 38.01337 | 24.13288 | 8676 ft | 287 kts | 155° |
| 2026-05-07 04:31 | 37.99521 | 24.14395 | 9550 ft | 292 kts | 155° |
| 2026-05-07 04:31 | 37.97671 | 24.15520 | 10352 ft | 301 kts | 155° |
| 2026-05-07 04:32 | 37.95711 | 24.16712 | 10692 ft | 325 kts | 155° |
| 2026-05-07 04:32 | 37.93600 | 24.18000 | 10999 ft | 348 kts | 155° |
| 2026-05-07 04:32 | 37.91408 | 24.19343 | 11576 ft | 358 kts | 155° |
| 2026-05-07 04:32 | 37.89141 | 24.20735 | 12282 ft | 366 kts | 154° |
| 2026-05-07 04:33 | 37.86831 | 24.22154 | 12982 ft | 372 kts | 154° |
| 2026-05-07 04:33 | 37.84478 | 24.23600 | 13693 ft | 379 kts | 154° |
| 2026-05-07 04:33 | 37.82087 | 24.25068 | 14343 ft | 385 kts | 154° |
| 2026-05-07 04:33 | 37.79667 | 24.26550 | 15006 ft | 389 kts | 155° |
| 2026-05-07 04:34 | 37.77213 | 24.28047 | 15671 ft | 393 kts | 155° |
| 2026-05-07 04:34 | 37.74734 | 24.29560 | 16340 ft | 398 kts | 155° |
| 2026-05-07 04:34 | 37.72231 | 24.31087 | 17001 ft | 402 kts | 155° |
| 2026-05-07 04:34 | 37.69699 | 24.32637 | 17647 ft | 406 kts | 155° |
| 2026-05-07 04:35 | 37.67140 | 24.34203 | 18283 ft | 411 kts | 155° |
| 2026-05-07 04:35 | 37.64560 | 24.35776 | 18860 ft | 414 kts | 155° |
| 2026-05-07 04:35 | 37.61953 | 24.37366 | 19416 ft | 418 kts | 155° |
| 2026-05-07 04:35 | 37.59324 | 24.38967 | 19971 ft | 421 kts | 155° |
| 2026-05-07 04:36 | 37.56677 | 24.40573 | 20514 ft | 424 kts | 155° |
| 2026-05-07 04:36 | 37.54040 | 24.42172 | 21064 ft | 427 kts | 155° |
| 2026-05-07 04:36 | 37.51354 | 24.43800 | 21604 ft | 430 kts | 155° |
| 2026-05-07 04:36 | 37.48649 | 24.45441 | 22139 ft | 433 kts | 155° |
| 2026-05-07 04:37 | 37.45927 | 24.47099 | 22650 ft | 436 kts | 155° |
| 2026-05-07 04:37 | 37.43181 | 24.48773 | 23163 ft | 439 kts | 155° |
| 2026-05-07 04:37 | 37.40418 | 24.50453 | 23665 ft | 443 kts | 155° |
| 2026-05-07 04:37 | 37.37628 | 24.52144 | 24077 ft | 446 kts | 155° |
| 2026-05-07 04:38 | 37.34822 | 24.53841 | 24478 ft | 449 kts | 155° |
| 2026-05-07 04:38 | 37.31994 | 24.55548 | 24877 ft | 452 kts | 155° |
| 2026-05-07 04:38 | 37.29157 | 24.57260 | 25063 ft | 454 kts | 155° |
| 2026-05-07 04:38 | 37.26297 | 24.58982 | 25109 ft | 457 kts | 155° |
| 2026-05-07 04:39 | 37.23469 | 24.60683 | 25104 ft | 457 kts | 155° |
| 2026-05-07 04:39 | 37.20593 | 24.62410 | 25115 ft | 458 kts | 155° |
| 2026-05-07 04:39 | 37.17723 | 24.64135 | 25113 ft | 458 kts | 155° |
| 2026-05-07 04:39 | 37.14853 | 24.65859 | 25117 ft | 458 kts | 155° |
| 2026-05-07 04:40 | 37.11977 | 24.67584 | 25111 ft | 458 kts | 155° |
| 2026-05-07 04:40 | 37.09103 | 24.69307 | 25118 ft | 458 kts | 155° |
| 2026-05-07 04:40 | 37.06232 | 24.71029 | 25113 ft | 458 kts | 155° |
| 2026-05-07 04:40 | 37.03360 | 24.72751 | 25130 ft | 458 kts | 155° |
| 2026-05-07 04:41 | 37.00484 | 24.74478 | 25124 ft | 458 kts | 155° |
| 2026-05-07 04:41 | 36.97613 | 24.76202 | 25125 ft | 458 kts | 155° |
| 2026-05-07 04:41 | 36.94741 | 24.77926 | 25122 ft | 458 kts | 155° |
| 2026-05-07 04:41 | 36.91893 | 24.79692 | 25117 ft | 458 kts | 150° |
| 2026-05-07 04:42 | 36.89175 | 24.81759 | 25119 ft | 458 kts | 148° |
| 2026-05-07 04:42 | 36.86468 | 24.83855 | 25123 ft | 458 kts | 148° |
| 2026-05-07 04:42 | 36.83763 | 24.85953 | 25117 ft | 457 kts | 148° |
| 2026-05-07 04:42 | 36.81062 | 24.88047 | 25116 ft | 457 kts | 148° |
| 2026-05-07 04:43 | 36.78357 | 24.90140 | 25119 ft | 457 kts | 148° |
| 2026-05-07 04:43 | 36.75660 | 24.92223 | 25124 ft | 457 kts | 148° |
| 2026-05-07 04:43 | 36.72953 | 24.94306 | 25121 ft | 457 kts | 148° |
| 2026-05-07 04:43 | 36.70248 | 24.96381 | 25120 ft | 457 kts | 148° |
| 2026-05-07 04:44 | 36.67539 | 24.98458 | 25126 ft | 457 kts | 148° |
| 2026-05-07 04:44 | 36.64829 | 25.00535 | 25124 ft | 457 kts | 148° |
| 2026-05-07 04:44 | 36.62125 | 25.02609 | 25136 ft | 457 kts | 149° |
| 2026-05-07 04:44 | 36.59414 | 25.04684 | 25126 ft | 456 kts | 149° |
| 2026-05-07 04:45 | 36.56714 | 25.06751 | 25143 ft | 456 kts | 149° |
| 2026-05-07 04:45 | 36.54045 | 25.08790 | 25149 ft | 456 kts | 149° |
| 2026-05-07 04:45 | 36.51346 | 25.10853 | 25150 ft | 455 kts | 149° |
| 2026-05-07 04:45 | 36.48651 | 25.12912 | 25149 ft | 455 kts | 149° |
| 2026-05-07 04:46 | 36.45957 | 25.14970 | 25147 ft | 454 kts | 149° |
| 2026-05-07 04:46 | 36.43266 | 25.17025 | 25135 ft | 454 kts | 149° |
| 2026-05-07 04:46 | 36.40574 | 25.19078 | 25125 ft | 454 kts | 149° |
| 2026-05-07 04:46 | 36.37887 | 25.21122 | 25137 ft | 454 kts | 149° |
| 2026-05-07 04:47 | 36.35193 | 25.23167 | 25129 ft | 453 kts | 149° |
| 2026-05-07 04:47 | 36.32500 | 25.25208 | 25127 ft | 453 kts | 149° |
| 2026-05-07 04:47 | 36.29810 | 25.27249 | 25134 ft | 453 kts | 149° |
| 2026-05-07 04:47 | 36.27127 | 25.29284 | 25150 ft | 452 kts | 149° |
| 2026-05-07 04:48 | 36.24442 | 25.31317 | 25154 ft | 451 kts | 149° |
| 2026-05-07 04:48 | 36.21763 | 25.33347 | 25158 ft | 451 kts | 149° |
| 2026-05-07 04:48 | 36.19087 | 25.35375 | 25156 ft | 450 kts | 149° |
| 2026-05-07 04:48 | 36.16417 | 25.37395 | 25154 ft | 450 kts | 149° |
| 2026-05-07 04:49 | 36.13741 | 25.39410 | 25153 ft | 450 kts | 150° |
| 2026-05-07 04:49 | 36.10921 | 25.41055 | 25150 ft | 448 kts | 161° |
| 2026-05-07 04:49 | 36.07962 | 25.42260 | 25148 ft | 448 kts | 163° |
| 2026-05-07 04:49 | 36.05000 | 25.43448 | 25145 ft | 447 kts | 163° |
| 2026-05-07 04:50 | 36.02075 | 25.44619 | 24942 ft | 448 kts | 163° |
| 2026-05-07 04:50 | 35.99053 | 25.45828 | 23856 ft | 455 kts | 163° |
| 2026-05-07 04:50 | 35.96070 | 25.47024 | 22912 ft | 457 kts | 163° |
| 2026-05-07 04:50 | 35.93055 | 25.48239 | 22146 ft | 454 kts | 163° |
| 2026-05-07 04:51 | 35.90068 | 25.49441 | 21451 ft | 449 kts | 163° |
| 2026-05-07 04:51 | 35.87058 | 25.50379 | 20790 ft | 442 kts | 175° |
| 2026-05-07 04:51 | 35.84023 | 25.50389 | 20148 ft | 434 kts | 190° |
| 2026-05-07 04:51 | 35.81090 | 25.49641 | 19485 ft | 428 kts | 195° |
| 2026-05-07 04:52 | 35.78210 | 25.48808 | 18866 ft | 424 kts | 195° |
| 2026-05-07 04:52 | 35.75352 | 25.47966 | 18229 ft | 420 kts | 195° |
| 2026-05-07 04:52 | 35.72534 | 25.47129 | 17841 ft | 410 kts | 195° |
| 2026-05-07 04:52 | 35.69851 | 25.46335 | 17695 ft | 381 kts | 195° |
| 2026-05-07 04:53 | 35.67341 | 25.45599 | 17074 ft | 367 kts | 195° |
| 2026-05-07 04:53 | 35.64845 | 25.44867 | 15941 ft | 371 kts | 195° |
| 2026-05-07 04:53 | 35.62327 | 25.44132 | 14847 ft | 373 kts | 195° |
| 2026-05-07 04:53 | 35.59796 | 25.43398 | 13769 ft | 374 kts | 195° |
| 2026-05-07 04:54 | 35.57297 | 25.42673 | 12617 ft | 373 kts | 195° |
| 2026-05-07 04:54 | 35.54777 | 25.41943 | 11492 ft | 370 kts | 195° |
| 2026-05-07 04:54 | 35.52289 | 25.41220 | 10407 ft | 366 kts | 194° |
| 2026-05-07 04:54 | 35.49823 | 25.40504 | 9270 ft | 361 kts | 194° |
| 2026-05-07 04:55 | 35.47397 | 25.39804 | 8118 ft | 355 kts | 192° |
| 2026-05-07 04:55 | 35.44964 | 25.39677 | 7013 ft | 349 kts | 171° |
| 2026-05-07 04:55 | 35.42699 | 25.40622 | 5896 ft | 342 kts | 152° |
| 2026-05-07 04:55 | 35.40632 | 25.42033 | 4770 ft | 337 kts | 150° |
| 2026-05-07 04:56 | 35.38544 | 25.43258 | 3773 ft | 328 kts | 166° |
| 2026-05-07 04:56 | 35.36400 | 25.43245 | 3377 ft | 302 kts | 197° |
| 2026-05-07 04:56 | 35.34737 | 25.41957 | 3226 ft | 272 kts | 230° |
| 2026-05-07 04:56 | 35.33780 | 25.40104 | 3102 ft | 246 kts | 244° |
| 2026-05-07 04:57 | 35.33155 | 25.38262 | 3016 ft | 223 kts | 249° |
| 2026-05-07 04:57 | 35.32824 | 25.36500 | 3011 ft | 205 kts | 265° |
| 2026-05-07 04:57 | 35.32826 | 25.34794 | 2978 ft | 194 kts | 272° |
| 2026-05-07 04:57 | 35.32919 | 25.33220 | 2765 ft | 176 kts | 274° |
| 2026-05-07 04:58 | 35.33017 | 25.31784 | 2546 ft | 162 kts | 274° |
| 2026-05-07 04:58 | 35.33107 | 25.30468 | 2293 ft | 150 kts | 274° |
| 2026-05-07 04:58 | 35.33197 | 25.29227 | 2065 ft | 143 kts | 275° |
| 2026-05-07 04:58 | 35.33284 | 25.28023 | 1852 ft | 141 kts | 274° |
| 2026-05-07 04:59 | 35.33364 | 25.26830 | 1639 ft | 140 kts | 274° |
| 2026-05-07 04:59 | 35.33444 | 25.25653 | 1433 ft | 139 kts | 273° |
| 2026-05-07 04:59 | 35.33524 | 25.24469 | 1232 ft | 139 kts | 272° |
| 2026-05-07 04:59 | 35.33605 | 25.23291 | 1021 ft | 139 kts | 273° |
| 2026-05-07 05:00 | 35.33691 | 25.22124 | 824 ft | 141 kts | 272° |
| 2026-05-07 05:00 | 35.33784 | 25.20936 | 561 ft | 140 kts | 272° |
| 2026-05-07 05:00 | 35.33858 | 25.19757 | 292 ft | 138 kts | 270° |
| 2026-05-07 05:00 | 35.33942 | 25.18593 | 99 ft | 131 kts | 272° |
| 2026-05-07 05:01 | 35.33998 | 25.17693 | 94 ft | 67 kts | 275° |
| 2026-05-07 05:01 | 35.34022 | 25.17346 | 90 ft | 34 kts | 274° |
| 2026-05-07 05:01 | 35.34008 | 25.17128 | 91 ft | 25 kts | 247° |
| 2026-05-07 05:01 | 35.33941 | 25.17072 | 90 ft | 10 kts | 110° |
| 2026-05-07 05:02 | 35.33937 | 25.17134 | 90 ft | 11 kts | 94° |
| 2026-05-07 05:02 | 35.33930 | 25.17232 | 91 ft | 12 kts | 95° |
| 2026-05-07 05:02 | 35.33923 | 25.17337 | 91 ft | 13 kts | 95° |
| 2026-05-07 05:02 | 35.33913 | 25.17458 | 91 ft | 15 kts | 95° |
| 2026-05-07 05:03 | 35.33859 | 25.17478 | 94 ft | 9 kts | 259° |
| 2026-05-07 05:03 | 35.33877 | 25.17425 | 92 ft | 0 kts | 314° |